Hermitage, Pennsylvania
Current Conditions -  °F | °C
As of 8:59 PM on Tuesday 21 Oct 2014 (Local Time) from KYNG Reporting Station
Overcast Overcast  
Wind Chill: 43°   Ceiling: 800
Heat Index: 48°   Visibility: 10mi
Dew Point: 45°   Wind: 13mph
Humidity: 89%   Direction: 10°N
Pressure: 30.02"   Gusts: NA
Location:  41.23°N, 80.45°W
Report Text: KYNG 220059Z 01011KT 10SM SCT004 OVC008 09/07 A3002 RMK AO2 T00890072
Loading
Personal Weather Stations






























Interactive Weather Map New forecast layout! Learn more

10-Day Weather Forecast

Advertisements
Track Severe Weather on mobile